Capt E. Frank Thompson — WDG2784 — position and weather

sailwx.info

Track history (hours):
 
Tides and Currents Weather Stations Pressure Air Temp Water Temp Dewpoint Dewpoint Depression Visibility Wind Speed Wind Dir Waves Ship Positions

Capt E. Frank Thompson

Owner: Maine Dept. of Transportation/Ferry Service, Rockland, ME. More information available from US FCC via Universal Licensing System and Coast Guard Vessel Documentation Center.

Last reported at 2017-Nov-08 14:50 UTC. Time now 2017-Nov-21 15:49 UTC.
Position N 44°06' W 069°06'.
Warning: this ship's position is 13 days out of date.

Length 47 m.

Type: Passenger vessel. MMSI: 367519240.

Date/timePositionNaut miles runAvg speedWind from/ knotsBaromVisibWave heightAir tempDewpointWater temp
2017-Nov-08 14:50N 44°06' W 069°06'1 3.6
2017-Nov-08 14:30N 44°06' W 069°05'1 2.9
2017-Nov-08 13:59N 44°06' W 069°06'0 0.0
2017-Nov-07 22:39N 44°06' W 069°06'1 7.5
2017-Nov-07 22:30N 44°06' W 069°05'612.0
2017-Nov-07 21:59N 44°05' W 068°57'5 4.0
2017-Nov-07 20:47N 44°02' W 068°51'312.2
2017-Nov-07 20:30N 44°04' W 068°55'612.6
2017-Nov-07 20:00N 44°06' W 069°03'2 2.7
2017-Nov-07 19:07N 44°06' W 069°06'1 8.2
2017-Nov-07 19:00N 44°06' W 069°05'612.1
2017-Nov-07 18:30N 44°05' W 068°57'5 2.7
2017-Nov-07 16:37N 44°02' W 068°51'213.3
2017-Nov-07 16:30N 44°03' W 068°53'611.2
2017-Nov-07 16:00N 44°06' W 068°60'4 3.7
2017-Nov-07 14:48N 44°06' W 069°06'311.1
2017-Nov-07 14:30N 44°06' W 069°01'712.3
2017-Nov-07 13:56N 44°03' W 068°53'1 2.1
2017-Nov-07 13:14N 44°02' W 068°51'311.2
2017-Nov-07 12:59N 44°04' W 068°54'611.9
2017-Nov-07 12:30N 44°06' W 069°02'3 0.3
2017-Nov-06 22:39N 44°06' W 069°06'1 6.7
2017-Nov-06 22:28N 44°06' W 069°05'611.8
2017-Nov-06 22:00N 44°05' W 068°57'5 5.3
2017-Nov-06 21:00N 44°02' W 068°51'612.4
2017-Nov-06 20:30N 44°05' W 068°59'5 0.2
2017-Nov-05 22:37N 44°06' W 069°06'1 9.0
2017-Nov-05 22:29N 44°06' W 069°05'611.7
2017-Nov-05 22:00N 44°05' W 068°57'510.2
2017-Nov-05 21:29N 44°03' W 068°50'1 1.1
2017-Nov-05 21:00N 44°02' W 068°51'511.0
2017-Nov-05 20:30N 44°05' W 068°57'611.4
2017-Nov-05 20:00N 44°06' W 069°05'0 0.4
2017-Nov-05 19:30N 44°06' W 069°06'611.2
2017-Nov-05 19:00N 44°05' W 068°58'611.0
2017-Nov-05 18:30N 44°03' W 068°51'1 1.3
2017-Nov-05 17:59N 44°03' W 068°50'5 9.9
2017-Nov-05 17:29N 44°05' W 068°56'510.2
2017-Nov-05 16:59N 44°06' W 069°03'2 4.5
2017-Nov-05 16:29N 44°06' W 069°06'0 0.0
2017-Nov-05 15:58N 44°06' W 069°06'0 0.0
2017-Nov-05 15:30N 44°06' W 069°06'0 0.0
2017-Nov-05 14:57N 44°06' W 069°06'4 9.1
2017-Nov-05 14:29N 44°06' W 069°01'611.9
2017-Nov-05 14:00N 44°04' W 068°53'2 4.5
2017-Nov-05 13:30N 44°03' W 068°50'2 4.1
2017-Nov-05 13:00N 44°03' W 068°53'510.7
2017-Nov-05 12:29N 44°06' W 068°60'5 9.9
2017-Nov-05 12:00N 44°06' W 069°06'0 0.0
2017-Nov-05 11:29N 44°06' W 069°06'0 0.0
2017-Nov-04 21:43N 44°06' W 069°06'1 6.4
2017-Nov-04 21:30N 44°06' W 069°05'611.7
2017-Nov-04 21:00N 44°05' W 068°57'5 4.5
2017-Nov-04 19:53N 44°02' W 068°51'410.9
2017-Nov-04 19:30N 44°04' W 068°56'611.7
2017-Nov-04 19:00N 44°06' W 069°04'2 4.2
2017-Nov-04 18:30N 44°06' W 069°06'2 3.0
2017-Nov-04 18:00N 44°06' W 069°04'611.7
2017-Nov-04 17:30N 44°05' W 068°57'510.2
2017-Nov-04 17:01N 44°03' W 068°50'0 0.1
2017-Nov-04 16:30N 44°03' W 068°50'0 0.0
2017-Nov-04 16:00N 44°03' W 068°50'1 2.6
2017-Nov-04 15:29N 44°03' W 068°52'611.9
2017-Nov-04 14:59N 44°06' W 068°60'510.2
2017-Nov-04 14:30N 44°06' W 069°06'0 0.0
2017-Nov-04 13:57N 44°06' W 069°06'4 8.9
2017-Nov-04 13:29N 44°06' W 069°01'611.7
2017-Nov-04 13:00N 44°04' W 068°53'2 4.6
2017-Nov-04 12:29N 44°03' W 068°50'2 3.2
2017-Nov-04 12:00N 44°03' W 068°52'611.2
2017-Nov-04 11:30N 44°06' W 068°59'5 9.5
2017-Nov-04 10:57N 44°06' W 069°06'0 0.1
2017-Nov-04 10:30N 44°06' W 069°06'0 0.0
2017-Nov-03 21:43N 44°06' W 069°06'2 7.0
2017-Nov-03 21:30N 44°06' W 069°04'611.4
2017-Nov-03 21:00N 44°05' W 068°56'5 4.5
2017-Nov-03 19:54N 44°02' W 068°50'410.5
2017-Nov-03 19:30N 44°04' W 068°56'612.1
2017-Nov-03 19:00N 44°06' W 069°03'2 3.0
2017-Nov-03 18:17N 44°06' W 069°06'2 7.0
2017-Nov-03 18:00N 44°06' W 069°04'511.0
2017-Nov-03 17:31N 44°05' W 068°56'5 9.3
2017-Nov-03 16:59N 44°03' W 068°50'0 0.0
2017-Nov-03 16:25N 44°03' W 068°50'0 0.0
2017-Nov-03 15:58N 44°03' W 068°50'1 2.2
2017-Nov-03 15:30N 44°03' W 068°52'611.8
2017-Nov-03 15:00N 44°06' W 068°59'5 9.1
2017-Nov-03 14:25N 44°06' W 069°06'0 0.0
2017-Nov-03 14:01N 44°06' W 069°06'4 8.7
2017-Nov-03 13:30N 44°06' W 069°00'611.4
2017-Nov-03 13:00N 44°04' W 068°53'2 3.6
2017-Nov-03 12:23N 44°03' W 068°50'2 5.9
2017-Nov-03 11:59N 44°04' W 068°53'511.0
2017-Nov-03 11:31N 44°06' W 069°00'5 5.4
2017-Nov-03 10:38N 44°06' W 069°06'0 0.0
2017-Nov-02 21:39N 44°06' W 069°06'1 6.8
2017-Nov-02 21:29N 44°06' W 069°05'611.8
2017-Nov-02 21:00N 44°05' W 068°57'510.8
2017-Nov-02 20:30N 44°03' W 068°50'0 0.9
2017-Nov-02 20:00N 44°02' W 068°51'511.0
2017-Nov-02 19:30N 44°05' W 068°57'611.8
2017-Nov-02 18:59N 44°06' W 069°06'1 0.8
2017-Nov-02 18:12N 44°06' W 069°06'2 8.3
2017-Nov-02 18:00N 44°06' W 069°04'611.2
2017-Nov-02 17:30N 44°05' W 068°56'5 9.9
2017-Nov-02 16:59N 44°03' W 068°50'0 0.0
2017-Nov-02 16:30N 44°03' W 068°50'0 0.0
2017-Nov-02 15:59N 44°03' W 068°50'3 6.8
2017-Nov-02 15:30N 44°04' W 068°54'611.6
2017-Nov-02 15:00N 44°06' W 069°02'3 6.1
2017-Nov-02 14:28N 44°06' W 069°06'0 0.0
2017-Nov-02 14:00N 44°06' W 069°06'5 9.4
2017-Nov-02 13:30N 44°06' W 069°00'611.4
2017-Nov-02 13:00N 44°03' W 068°53'2 3.7
2017-Nov-02 12:29N 44°03' W 068°50'2 4.4
2017-Nov-02 12:00N 44°03' W 068°53'510.9
2017-Nov-02 11:30N 44°06' W 068°60'5 6.4
2017-Nov-02 10:45N 44°06' W 069°06'0 0.0
2017-Nov-01 21:43N 44°06' W 069°06'1 6.1
2017-Nov-01 21:29N 44°06' W 069°05'611.8
2017-Nov-01 21:00N 44°05' W 068°57'510.3
2017-Nov-01 20:30N 44°03' W 068°50'1 1.0
2017-Nov-01 20:00N 44°02' W 068°51'611.0
2017-Nov-01 19:29N 44°05' W 068°58'611.7
2017-Nov-01 19:00N 44°06' W 069°06'1 1.0
2017-Nov-01 18:17N 44°06' W 069°06'0 0.0
2017-Oct-31 21:51N 44°06' W 069°06'2 5.4
2017-Oct-31 21:28N 44°06' W 069°04'511.7
2017-Oct-31 21:00N 44°05' W 068°56'5 4.4
2017-Oct-31 19:55N 44°03' W 068°50'4 9.7
2017-Oct-31 19:29N 44°04' W 068°56'612.0
2017-Oct-31 19:00N 44°06' W 069°03'2 4.2
2017-Oct-31 18:29N 44°06' W 069°06'2 5.0
2017-Oct-31 18:00N 44°06' W 069°03'511.0
2017-Oct-31 17:30N 44°05' W 068°56'5 6.0
2017-Oct-31 16:45N 44°03' W 068°50'0 0.0
2017-Oct-31 16:24N 44°03' W 068°50'0 0.0
2017-Oct-31 15:55N 44°03' W 068°50'1 2.0
2017-Oct-31 15:30N 44°03' W 068°51'612.1
2017-Oct-31 15:00N 44°05' W 068°59'611.1
2017-Oct-31 14:30N 44°06' W 069°06'0 0.2
2017-Oct-31 14:00N 44°06' W 069°06'510.3
2017-Oct-31 13:30N 44°05' W 068°59'610.8
2017-Oct-31 12:59N 44°03' W 068°52'2 2.7
2017-Oct-31 12:26N 44°03' W 068°50'1 2.6
2017-Oct-31 12:00N 44°03' W 068°52'611.7
2017-Oct-31 11:30N 44°06' W 068°59'510.6
2017-Oct-31 11:00N 44°06' W 069°06'0 0.1
2017-Oct-31 10:29N 44°06' W 069°06'0 0.0
2017-Oct-30 14:06N 44°06' W 069°06'0 0.0
2017-Oct-30 13:28N 44°06' W 069°06'0 0.0
2017-Oct-30 12:58N 44°06' W 069°06'0 0.0
2017-Oct-30 12:29N 44°06' W 069°06'0 0.0
2017-Oct-30 12:00N 44°06' W 069°06'0 0.0
2017-Oct-29 21:51N 44°06' W 069°06'6 8.2
2017-Oct-29 21:05N 44°05' W 068°58'312.1
2017-Oct-29 20:51N 44°04' W 068°54'2 1.6
2017-Oct-29 19:44N 44°03' W 068°52'311.0
2017-Oct-29 19:27N 44°05' W 068°56'711.7
2017-Oct-29 18:50N 44°06' W 069°06'0 0.8
2017-Oct-29 18:17N 44°06' W 069°06'4 9.9
2017-Oct-29 17:52N 44°06' W 069°01'411.8
2017-Oct-29 17:29N 44°04' W 068°55'4 1.9
2017-Oct-29 15:37N 44°02' W 068°51'311.1
2017-Oct-29 15:20N 44°04' W 068°54'411.8
2017-Oct-29 14:59N 44°06' W 068°60'  
Track history (hours):
 
Tides and Currents Weather Stations Pressure Air Temp Water Temp Dewpoint Dewpoint Depression Visibility Wind Speed Wind Dir Waves Ship Positions

Capt E. Frank Thompson

Owner: Maine Dept. of Transportation/Ferry Service, Rockland, ME. More information available from US FCC via Universal Licensing System and Coast Guard Vessel Documentation Center.

Last reported at 2017-Nov-08 14:50 UTC. Time now 2017-Nov-21 15:49 UTC.
Position N 44°06' W 069°06'.
Warning: this ship's position is 13 days out of date.

Length 47 m.

Type: Passenger vessel. MMSI: 367519240.

Date/timePositionNaut miles runAvg speedWind from/ knotsBaromVisibWave heightAir tempDewpointWater temp
2017-Nov-08 14:50N 44°06' W 069°06'1 3.6
2017-Nov-08 14:30N 44°06' W 069°05'1 2.9
2017-Nov-08 13:59N 44°06' W 069°06'0 0.0
2017-Nov-07 22:39N 44°06' W 069°06'1 7.5
2017-Nov-07 22:30N 44°06' W 069°05'612.0
2017-Nov-07 21:59N 44°05' W 068°57'5 4.0
2017-Nov-07 20:47N 44°02' W 068°51'312.2
2017-Nov-07 20:30N 44°04' W 068°55'612.6
2017-Nov-07 20:00N 44°06' W 069°03'2 2.7
2017-Nov-07 19:07N 44°06' W 069°06'1 8.2
2017-Nov-07 19:00N 44°06' W 069°05'612.1
2017-Nov-07 18:30N 44°05' W 068°57'5 2.7
2017-Nov-07 16:37N 44°02' W 068°51'213.3
2017-Nov-07 16:30N 44°03' W 068°53'611.2
2017-Nov-07 16:00N 44°06' W 068°60'4 3.7
2017-Nov-07 14:48N 44°06' W 069°06'311.1
2017-Nov-07 14:30N 44°06' W 069°01'712.3
2017-Nov-07 13:56N 44°03' W 068°53'1 2.1
2017-Nov-07 13:14N 44°02' W 068°51'311.2
2017-Nov-07 12:59N 44°04' W 068°54'611.9
2017-Nov-07 12:30N 44°06' W 069°02'3 0.3
2017-Nov-06 22:39N 44°06' W 069°06'1 6.7
2017-Nov-06 22:28N 44°06' W 069°05'611.8
2017-Nov-06 22:00N 44°05' W 068°57'5 5.3
2017-Nov-06 21:00N 44°02' W 068°51'612.4
2017-Nov-06 20:30N 44°05' W 068°59'5 0.2
2017-Nov-05 22:37N 44°06' W 069°06'1 9.0
2017-Nov-05 22:29N 44°06' W 069°05'611.7
2017-Nov-05 22:00N 44°05' W 068°57'510.2
2017-Nov-05 21:29N 44°03' W 068°50'1 1.1
2017-Nov-05 21:00N 44°02' W 068°51'511.0
2017-Nov-05 20:30N 44°05' W 068°57'611.4
2017-Nov-05 20:00N 44°06' W 069°05'0 0.4
2017-Nov-05 19:30N 44°06' W 069°06'611.2
2017-Nov-05 19:00N 44°05' W 068°58'611.0
2017-Nov-05 18:30N 44°03' W 068°51'1 1.3
2017-Nov-05 17:59N 44°03' W 068°50'5 9.9
2017-Nov-05 17:29N 44°05' W 068°56'510.2
2017-Nov-05 16:59N 44°06' W 069°03'2 4.5
2017-Nov-05 16:29N 44°06' W 069°06'0 0.0
2017-Nov-05 15:58N 44°06' W 069°06'0 0.0
2017-Nov-05 15:30N 44°06' W 069°06'0 0.0
2017-Nov-05 14:57N 44°06' W 069°06'4 9.1
2017-Nov-05 14:29N 44°06' W 069°01'611.9
2017-Nov-05 14:00N 44°04' W 068°53'2 4.5
2017-Nov-05 13:30N 44°03' W 068°50'2 4.1
2017-Nov-05 13:00N 44°03' W 068°53'510.7
2017-Nov-05 12:29N 44°06' W 068°60'5 9.9
2017-Nov-05 12:00N 44°06' W 069°06'0 0.0
2017-Nov-05 11:29N 44°06' W 069°06'0 0.0
2017-Nov-04 21:43N 44°06' W 069°06'1 6.4
2017-Nov-04 21:30N 44°06' W 069°05'611.7
2017-Nov-04 21:00N 44°05' W 068°57'5 4.5
2017-Nov-04 19:53N 44°02' W 068°51'410.9
2017-Nov-04 19:30N 44°04' W 068°56'611.7
2017-Nov-04 19:00N 44°06' W 069°04'2 4.2
2017-Nov-04 18:30N 44°06' W 069°06'2 3.0
2017-Nov-04 18:00N 44°06' W 069°04'611.7
2017-Nov-04 17:30N 44°05' W 068°57'510.2
2017-Nov-04 17:01N 44°03' W 068°50'0 0.1
2017-Nov-04 16:30N 44°03' W 068°50'0 0.0
2017-Nov-04 16:00N 44°03' W 068°50'1 2.6
2017-Nov-04 15:29N 44°03' W 068°52'611.9
2017-Nov-04 14:59N 44°06' W 068°60'510.2
2017-Nov-04 14:30N 44°06' W 069°06'0 0.0
2017-Nov-04 13:57N 44°06' W 069°06'4 8.9
2017-Nov-04 13:29N 44°06' W 069°01'611.7
2017-Nov-04 13:00N 44°04' W 068°53'2 4.6
2017-Nov-04 12:29N 44°03' W 068°50'2 3.2
2017-Nov-04 12:00N 44°03' W 068°52'611.2
2017-Nov-04 11:30N 44°06' W 068°59'5 9.5
2017-Nov-04 10:57N 44°06' W 069°06'0 0.1
2017-Nov-04 10:30N 44°06' W 069°06'0 0.0
2017-Nov-03 21:43N 44°06' W 069°06'2 7.0
2017-Nov-03 21:30N 44°06' W 069°04'611.4
2017-Nov-03 21:00N 44°05' W 068°56'5 4.5
2017-Nov-03 19:54N 44°02' W 068°50'410.5
2017-Nov-03 19:30N 44°04' W 068°56'612.1
2017-Nov-03 19:00N 44°06' W 069°03'2 3.0
2017-Nov-03 18:17N 44°06' W 069°06'2 7.0
2017-Nov-03 18:00N 44°06' W 069°04'511.0
2017-Nov-03 17:31N 44°05' W 068°56'5 9.3
2017-Nov-03 16:59N 44°03' W 068°50'0 0.0
2017-Nov-03 16:25N 44°03' W 068°50'0 0.0
2017-Nov-03 15:58N 44°03' W 068°50'1 2.2
2017-Nov-03 15:30N 44°03' W 068°52'611.8
2017-Nov-03 15:00N 44°06' W 068°59'5 9.1
2017-Nov-03 14:25N 44°06' W 069°06'0 0.0
2017-Nov-03 14:01N 44°06' W 069°06'4 8.7
2017-Nov-03 13:30N 44°06' W 069°00'611.4
2017-Nov-03 13:00N 44°04' W 068°53'2 3.6
2017-Nov-03 12:23N 44°03' W 068°50'2 5.9
2017-Nov-03 11:59N 44°04' W 068°53'511.0
2017-Nov-03 11:31N 44°06' W 069°00'5 5.4
2017-Nov-03 10:38N 44°06' W 069°06'0 0.0
2017-Nov-02 21:39N 44°06' W 069°06'1 6.8
2017-Nov-02 21:29N 44°06' W 069°05'611.8
2017-Nov-02 21:00N 44°05' W 068°57'510.8
2017-Nov-02 20:30N 44°03' W 068°50'0 0.9
2017-Nov-02 20:00N 44°02' W 068°51'511.0
2017-Nov-02 19:30N 44°05' W 068°57'611.8
2017-Nov-02 18:59N 44°06' W 069°06'1 0.8
2017-Nov-02 18:12N 44°06' W 069°06'2 8.3
2017-Nov-02 18:00N 44°06' W 069°04'611.2
2017-Nov-02 17:30N 44°05' W 068°56'5 9.9
2017-Nov-02 16:59N 44°03' W 068°50'0 0.0
2017-Nov-02 16:30N 44°03' W 068°50'0 0.0
2017-Nov-02 15:59N 44°03' W 068°50'3 6.8
2017-Nov-02 15:30N 44°04' W 068°54'611.6
2017-Nov-02 15:00N 44°06' W 069°02'3 6.1
2017-Nov-02 14:28N 44°06' W 069°06'0 0.0
2017-Nov-02 14:00N 44°06' W 069°06'5 9.4
2017-Nov-02 13:30N 44°06' W 069°00'611.4
2017-Nov-02 13:00N 44°03' W 068°53'2 3.7
2017-Nov-02 12:29N 44°03' W 068°50'2 4.4
2017-Nov-02 12:00N 44°03' W 068°53'510.9
2017-Nov-02 11:30N 44°06' W 068°60'5 6.4
2017-Nov-02 10:45N 44°06' W 069°06'0 0.0
2017-Nov-01 21:43N 44°06' W 069°06'1 6.1
2017-Nov-01 21:29N 44°06' W 069°05'611.8
2017-Nov-01 21:00N 44°05' W 068°57'510.3
2017-Nov-01 20:30N 44°03' W 068°50'1 1.0
2017-Nov-01 20:00N 44°02' W 068°51'611.0
2017-Nov-01 19:29N 44°05' W 068°58'611.7
2017-Nov-01 19:00N 44°06' W 069°06'1 1.0
2017-Nov-01 18:17N 44°06' W 069°06'0 0.0
2017-Oct-31 21:51N 44°06' W 069°06'2 5.4
2017-Oct-31 21:28N 44°06' W 069°04'511.7
2017-Oct-31 21:00N 44°05' W 068°56'5 4.4
2017-Oct-31 19:55N 44°03' W 068°50'4 9.7
2017-Oct-31 19:29N 44°04' W 068°56'612.0
2017-Oct-31 19:00N 44°06' W 069°03'2 4.2
2017-Oct-31 18:29N 44°06' W 069°06'2 5.0
2017-Oct-31 18:00N 44°06' W 069°03'511.0
2017-Oct-31 17:30N 44°05' W 068°56'5 6.0
2017-Oct-31 16:45N 44°03' W 068°50'0 0.0
2017-Oct-31 16:24N 44°03' W 068°50'0 0.0
2017-Oct-31 15:55N 44°03' W 068°50'1 2.0
2017-Oct-31 15:30N 44°03' W 068°51'612.1
2017-Oct-31 15:00N 44°05' W 068°59'611.1
2017-Oct-31 14:30N 44°06' W 069°06'0 0.2
2017-Oct-31 14:00N 44°06' W 069°06'510.3
2017-Oct-31 13:30N 44°05' W 068°59'610.8
2017-Oct-31 12:59N 44°03' W 068°52'2 2.7
2017-Oct-31 12:26N 44°03' W 068°50'1 2.6
2017-Oct-31 12:00N 44°03' W 068°52'611.7
2017-Oct-31 11:30N 44°06' W 068°59'510.6
2017-Oct-31 11:00N 44°06' W 069°06'0 0.1
2017-Oct-31 10:29N 44°06' W 069°06'0 0.0
2017-Oct-30 14:06N 44°06' W 069°06'0 0.0
2017-Oct-30 13:28N 44°06' W 069°06'0 0.0
2017-Oct-30 12:58N 44°06' W 069°06'0 0.0
2017-Oct-30 12:29N 44°06' W 069°06'0 0.0
2017-Oct-30 12:00N 44°06' W 069°06'0 0.0
2017-Oct-29 21:51N 44°06' W 069°06'6 8.2
2017-Oct-29 21:05N 44°05' W 068°58'312.1
2017-Oct-29 20:51N 44°04' W 068°54'2 1.6
2017-Oct-29 19:44N 44°03' W 068°52'311.0
2017-Oct-29 19:27N 44°05' W 068°56'711.7
2017-Oct-29 18:50N 44°06' W 069°06'0 0.8
2017-Oct-29 18:17N 44°06' W 069°06'4 9.9
2017-Oct-29 17:52N 44°06' W 069°01'411.8
2017-Oct-29 17:29N 44°04' W 068°55'4 1.9
2017-Oct-29 15:37N 44°02' W 068°51'311.1
2017-Oct-29 15:20N 44°04' W 068°54'411.8
2017-Oct-29 14:59N 44°06' W 068°60'  

Dump ship's entire track history